AirNav   Duncan Aviation - Near you to keep you flying
 
 1756 users online  

T90 Chambers County/Winnie Stowell Airport
Winnie/Stowell, Texas, USA

GOING TO WINNIE/STOWELL?


FAA INFORMATION EFFECTIVE 14 JULY 2022

Location

FAA Identifier: T90
Lat/Long: 29-49-07.8750N 094-25-51.5250W
29-49.131250N 094-25.858750W
29.8188542,-94.4309792
(estimated)
Elevation: 24.2 ft. / 7.4 m (surveyed)
Variation: 05E (1985)
From city: 3 miles W of central business district of the associated city
Time zone: UTC -5 (UTC -6 during Standard Time)
Zip code: 77665

Airport Operations

Airport use: Open to the public
Activation date: 07/1988
Control tower: no
ARTCC: HOUSTON CENTER
FSS: MONTGOMERY COUNTY FLIGHT SERVICE STATION
NOTAMs facility: CXO (NOTAM-D service available)
Attendance: UNATNDD
Wind indicator: lighted
Segmented circle: yes
Lights: MIRL RWY 17/35 PRESET LOW INTST DUSK-2330, TO INCR INTST OR ACTVT AFT 2330 - CTAF.
Beacon: white-green (lighted land airport)
Operates sunset to sunrise.

Airport Communications

CTAF: 122.9
WX AWOS-3PT at BMT (19 nm NE): 118.425 (409-866-2832)

Nearby radio navigation aids

VOR radial/distance  VOR name  Freq  Var
SBIr284/22.0SABINE PASS VOR/DME115.4007E
BPTr244/22.9BEAUMONT VOR/DME114.5007E
MHFr038/23.2TRINITY VOR/DME113.6007E
DASr148/24.9DAISETTA VORTAC116.9005E

 
NDB name  Hdg/Dist  Freq  Var  ID
GOODHUE210/18.936807EGDE --. -.. .

Airport Services

Fuel available: 100LL JET-A+
100LL:FUEL SELF-SVC.
Parking: tiedowns

Runway Information

Runway 17/35

Dimensions: 3600 x 75 ft. / 1097 x 23 m
Surface: asphalt, in good condition
Runway edge lights: medium intensity
RUNWAY 17  RUNWAY 35
Latitude: 29-49.428167N29-48.834333N
Longitude: 094-25.866333W094-25.851167W
Elevation: 24.2 ft.22.6 ft.
Traffic pattern: leftleft
Runway heading: 174 magnetic, 179 true354 magnetic, 359 true
Markings: nonprecision, in good conditionnonprecision, in good condition
Visual slope indicator: 2-light PAPI on left (3.00 degrees glide path)2-light PAPI on left (3.00 degrees glide path)
Touchdown point: yes, no lightsyes, no lights
Obstructions: 71 ft. trees, 1574 ft. from runway, 245 ft. left of centerline, 19:1 slope to clear52 ft. trees, 1948 ft. from runway, 140 ft. left of centerline, 34:1 slope to clear

Airport Ownership and Management from official FAA records

Ownership: Publicly-owned
Owner: CHAMBERS CO COMMISSIONERS CT
404 WASHINGTON ST PO BOX 939
ANAHUAC, TX 77514
Phone 409-267-2400
Manager: RONNIE BROWN
PO BOX 938
ANAHUAC, TX 77514
Phone 409-267-2719

Airport Operational Statistics

Aircraft based on the field: 7
Single engine airplanes: 6
Jet airplanes: 1
    
Aircraft operations: avg 115/week *
75% local general aviation
25% transient general aviation
* for 12-month period ending 29 September 2016

Additional Remarks

FOR CD CTC HOUSTON APCH AT 281-443-5844. TO CNL IFR CALL 281-443-5888.

Instrument Procedures

There are no published instrument procedures at T90.

Some nearby airports with instrument procedures:

T00 - Chambers County Airport (12 nm W)
KBMT - Beaumont Municipal Airport (19 nm NE)
T78 - Liberty Municipal Airport (21 nm NW)
54T - RWJ Airpark (22 nm W)
KBPT - Jack Brooks Regional Airport (23 nm E)
 
Loc | Ops | Rwys | IFR | FBO | Links
Com | Nav | Svcs | Stats | Notes
Area around T90 (Chambers County/Winnie Stowell Airport)
 
Road maps at: MapQuest Bing Google
 
Aerial photo
WARNING: Photo may not be current or correct
Aerial photo of T90 (Chambers County/Winnie Stowell Airport)
Photo by Danny Schnautz
Photo taken 07-Nov-2020
looking northeast from 2,000

Do you have a better or more recent aerial photo of Chambers County/Winnie Stowell Airport that you would like to share? If so, please send us your photo.

 
Sectional chart

 
Airport distance calculator
Flying to Chambers County/Winnie Stowell Airport? Find the distance to fly.

From to T90

Sunrise and sunset
Times for 10-Aug-2022
 Local
(UTC-5)
 Zulu
(UTC)
Morning civil twilight06:1811:18
Sunrise06:4311:43
Sunset20:0301:03
Evening civil twilight20:2801:28

Current date and time
Zulu (UTC)  10-Aug-2022 14:44:03
Local (UTC-5)  10-Aug-2022 09:44:03
 
METAR
KBMT 
19nm NE 
101435Z AUTO 00000KT 10SM SCT025 SCT120 30/24 A3010 RMK AO2 T02960239
KBPT 
22nm E 
101353Z 31003KT 10SM SCT040 29/26 A3009 RMK AO2 SLP188 T02940256
KT41 
34nm W 
101435Z AUTO 00000KT 10SM SCT100 30/14 A3010 RMK AO2 LTG DSNT SE T03030142
KORG 
36nm NE 
101435Z AUTO 00000KT 10SM CLR 32/26 A3011 RMK AO2 T03150257
TAF
KBPT 
22nm E 
101133Z 1012/1112 16004KT P6SM BKN035 OVC045 FM101300 VRB05KT P6SM VCSH SCT025 BKN150 TEMPO 1017/1020 5SM SHRA BR BKN025 FM102000 08005KT P6SM VCSH FEW030 SCT040 OVC250 TEMPO 1020/1024 3SM -TSRA BKN030CB BKN050CB FM110600 VRB05KT P6SM BKN250
NOTAMs
Click for the latest NOTAMs
NOTAMs are issued by the DoD/FAA and will open in a separate window not controlled by AirNav.

 

 
 

FBO, Fuel Providers, and Aircraft Ground Support

  
 Business Name 
 
 Contact 
 
 Services / Description 
 
Fuel Prices
 
Comments
  
Chambers County-Winnie Stowell Airport 409-267-2719
no information available

If you are affiliated with Chambers County-Winnie Stowell Airport and would like to show here your services, contact info, web link, logo, and more, click here
100LL Jet A
SS $6.11 $5.05 
 Updated 18-Jul-2022
 
   write
SS=Self service
Update Fuel Prices
 

Would you like to see your business listed on this page?

 If your business provides an interesting product or service to pilots, flight crews, aircraft, or users of the Chambers County/Winnie Stowell Airport, you should consider listing it here.  To start the listing process, click on the button below
 
Add a business
 

Other Pages about Chambers County/Winnie Stowell Airport

www.co.chambers.tx.us/...
 
Update a link
 
Copyright © AirNav, LLC. All rights reserved. Privacy Policy  Contact